KPTK

Oakland County International Airport

Pontiac, Michigan, USA
METAR KPTK 231453Z 36007KT 10SM FEW026 SCT230 21/14 A3016 RMK AO2 SLP213 T02110144 50006
Observed Flight Rules
May-23 @ 14:53 UTC (8 minutes ago) Visual Flight Rules
Wind Visibility Clouds
360° at 7 knots 10 miles
  • Few at 2,600' AGL
  • Scattered at 23,000' AGL
Temperatures Readings
Current 21°C / 70°F
Dewpoint 14°C / 57°F
Humidity 64%
Altimeter 30.16" Hg
Pressure 1021.3 hPa
Elevation 299
METAR KPTK 231453Z 36007KT 10SM FEW026 SCT230 21/14 A3016 RMK AO2 SLP213 T02110144 50006
Observed Flight Rules
May-23 @ 14:53 UTC
(8 minutes ago)
VFR
Wind Visibility
360° at 7 knots 10 miles
Clouds
  • Few at 2,600' AGL
  • Scattered at 23,000' AGL
Temperature Dewpoint
21°C / 70°F 14°C / 57°F
Humidity Altimeter Pressure
64% 30.16" Hg 1021.3 hPa